• Join FlightAware (Why Join?)
  • Login
  • US Flag 
08:42PM EDT


 

Airport Tracker/Info


-or-


 

Live Flight TrackerFlight Track Log ✈ SWA896 ✈ 26-Apr-2013 ✈ KLAS - KSMF

Flight Track Log - Related Links

Times and Time Zones

All times are in EDT time to prevent confusion due to time zone crossing. See the SWA896 flight status page for this flight to view local times or setup timezone preferences in your user account.

Time Position Orientation Groundspeed Altitude Reporting Facility
EDT Latitude Longitude Course Direction KTS MPH feet Rate Location/Type
01:47PM 36.0758 -115.1764 267° West 173 199 3,500  Level Los Angeles Center
01:48PM 36.0742 -115.2194 267° West 208 239 4,300 1,560 Climbing Los Angeles Center
01:49PM 36.0483 -115.2653 235° Southwest 244 281 5,800 2,460 Climbing Los Angeles Center
01:50PM 35.9728 -115.3014 201° Southwest 282 325 9,000 3,240 Climbing Los Angeles Center
01:51PM 35.8969 -115.3903 224° Southwest 302 348 12,500 2,820 Climbing Los Angeles Center
01:52PM 35.8431 -115.4828 234° Southwest 329 379 14,900 2,340 Climbing Los Angeles Center
01:53PM 35.8581 -115.6081 278° West 372 428 17,400 2,400 Climbing Los Angeles Center
01:54PM 35.8722 -115.7489 277° West 386 444 19,900 2,280 Climbing Los Angeles Center
01:55PM 35.8864 -115.8839 277° West 397 457 22,200 2,040 Climbing Los Angeles Center
01:56PM 35.9253 -116.0072 291° West 398 458 24,200 1,740 Climbing Los Angeles Center
01:57PM 36.0036 -116.1039 315° West 400 460 25,900 1,560 Climbing Los Angeles Center
01:58PM 36.0853 -116.2067 315° West 409 471 27,500 1,500 Climbing Los Angeles Center
01:59PM 36.1678 -116.3042 316° Northwest 413 475 29,000 1,740 Climbing Los Angeles Center
02:00PM 36.2694 -116.4289 315° West 420 483 31,100 1,740 Climbing Los Angeles Center
02:01PM 36.3525 -116.5319 315° West 424 488 32,700 1,380 Climbing Los Angeles Center
02:02PM 36.4344 -116.6353 315° West 422 486 34,000 600 Climbing Los Angeles Center
02:03PM 36.5175 -116.7361 316° Northwest 420 483 34,000  Level Los Angeles Center
02:04PM 36.6014 -116.8439 314° West 419 482 34,000  Level Los Angeles Center
02:05PM 36.6961 -116.9636 315° West 419 482 34,000  Level Los Angeles Center
02:06PM 36.7772 -117.0650 315° West 416 479 34,000  Level Los Angeles Center
02:07PM 36.8622 -117.1742 314° West 416 479 34,000  Level Los Angeles Center
02:08PM 36.9269 -117.2606 313° West 418 481 34,000  Level Oakland Center
02:09PM 37.0083 -117.3619 315° West 415 478 34,000  Level Oakland Center
02:10PM 37.0911 -117.4681 314° West 420 483 34,000  Level Oakland Center
02:11PM 37.1725 -117.5728 314° West 420 483 34,000  Level Oakland Center
02:12PM 37.2547 -117.6783 314° West 421 484 34,000  Level Oakland Center
02:13PM 37.3389 -117.7864 314° West 428 493 34,000  Level Oakland Center
02:14PM 37.4203 -117.8922 314° West 421 484 34,000  Level Oakland Center
02:15PM 37.5197 -118.0211 314° West 425 489 34,000  Level Oakland Center
02:16PM 37.6017 -118.1317 313° West 428 493 34,000  Level Oakland Center
02:17PM 37.6833 -118.2372 314° West 422 486 34,000  Level Oakland Center
02:19PM 37.7658 -118.3453 314° West 424 488 34,000  Level Oakland Center
02:20PM 37.8469 -118.4533 314° West 424 488 34,000  Level Oakland Center
02:21PM 37.9278 -118.5597 314° West 420 483 34,000  Level Oakland Center
02:22PM 38.0089 -118.6675 314° West 422 486 34,000  Level Oakland Center
02:23PM 38.0894 -118.7747 314° West 420 483 34,000  Level Oakland Center
02:24PM 38.1783 -118.8947 313° West 421 484 34,000  Level Oakland Center
02:25PM 38.2578 -119.0031 313° West 419 482 34,000  Level Oakland Center
02:26PM 38.3381 -119.1111 313° West 420 483 34,000  Level Oakland Center
02:27PM 38.4197 -119.2206 314° West 423 487 34,000  Level Oakland Center
02:28PM 38.5003 -119.3303 313° West 424 488 34,000 -840 Level Oakland Center
02:29PM 38.5569 -119.4642 298° West 431 496 32,400 -1,800 Descending Oakland Center
02:30PM 38.5964 -119.6003 290° West 413 475 30,400 -2,100 Descending Oakland Center
02:31PM 38.6656 -119.7425 302° West 400 460 28,100 -2,100 Descending Oakland Center
02:32PM 38.7297 -119.8331 312° West 379 436 26,200 -1,740 Descending Oakland Center
02:33PM 38.7889 -119.9408 305° West 380 437 24,600 -1,620 Descending Oakland Center
02:34PM 38.8133 -120.0658 284° West 365 420 22,900 -1,620 Descending Oakland Center
02:35PM 38.8361 -120.1864 284° West 352 405 21,300 -2,040 Descending Oakland Center
02:36PM 38.8500 -120.3325 277° West 349 402 18,800 -2,400 Descending Oakland Center
02:37PM 38.8439 -120.4631 267° West 367 422 16,400 -2,400 Descending Oakland Center
02:38PM 38.8389 -120.5958 267° West 374 430 13,900 -1,740 Descending Oakland Center
02:39PM 38.8350 -120.7231 268° West 360 414 12,900 -1,260 Descending Oakland Center
02:40PM 38.8297 -120.8386 267° West 330 380 11,400 -1,320 Descending Oakland Center
02:41PM 38.8256 -120.9475 267° West 311 358 10,300 -1,200 Descending Oakland Center
02:42PM 38.8322 -121.0497 275° West 294 338 9,000 -1,320 Descending Oakland Center
02:43PM 38.8472 -121.1469 281° West 283 326 7,600 -1,560 Descending Oakland Center
02:44PM 38.8481 -121.2653 271° West 279 321 5,900 -1,380 Descending Oakland Center
02:45PM 38.8500 -121.3667 271° West 267 307 4,900 -1,020 Descending Northern Cal TRACON
02:46PM 38.8500 -121.4500 270° West 247 284 4,000 -720 Descending Northern Cal TRACON
02:47PM 38.8500 -121.5333 270° West 220 253 3,400 -840 Descending Northern Cal TRACON
02:48PM 38.8167 -121.5833 229° Southwest 199 229 2,400 -1,200 Descending Northern Cal TRACON
02:49PM 38.7667 -121.6000 195° South 171 197 1,200 -1,020 Descending Northern Cal TRACON
02:50PM 38.7333 -121.6000 180° South 145 167 400 -840 Descending Northern Cal TRACON
02:52PM 38.6954 -121.5908 218° Southwest  Level Estimated
02:59PM 38.6954 -121.5908 218° Southwest  Level Estimated
03:00PM 38.6954 -121.5908 218° Southwest  Level Estimated